sensor_id;sensor_type;location;lat;lon;timestamp;temperature;humidity
10149;DHT22;5115;50.920;6.376;2024-03-29T00:00:51;10.20;99.90
10149;DHT22;5115;50.920;6.376;2024-03-29T00:03:17;10.20;99.90
10149;DHT22;5115;50.920;6.376;2024-03-29T00:05:42;10.20;99.90
10149;DHT22;5115;50.920;6.376;2024-03-29T00:08:08;10.20;99.90
10149;DHT22;5115;50.920;6.376;2024-03-29T00:10:33;10.30;99.90
10149;DHT22;5115;50.920;6.376;2024-03-29T00:12:59;10.30;99.90
10149;DHT22;5115;50.920;6.376;2024-03-29T00:15:24;10.30;99.90
10149;DHT22;5115;50.920;6.376;2024-03-29T00:17:50;10.20;99.90
10149;DHT22;5115;50.920;6.376;2024-03-29T00:20:16;10.20;99.90
10149;DHT22;5115;50.920;6.376;2024-03-29T00:22:42;10.20;99.90
10149;DHT22;5115;50.920;6.376;2024-03-29T00:25:07;10.20;99.90
10149;DHT22;5115;50.920;6.376;2024-03-29T00:27:33;10.20;99.90
10149;DHT22;5115;50.920;6.376;2024-03-29T00:29:58;10.20;99.90
10149;DHT22;5115;50.920;6.376;2024-03-29T00:32:25;10.20;99.90
10149;DHT22;5115;50.920;6.376;2024-03-29T00:34:52;10.20;99.90
10149;DHT22;5115;50.920;6.376;2024-03-29T00:37:18;10.20;99.90
10149;DHT22;5115;50.920;6.376;2024-03-29T00:39:44;10.20;99.90
10149;DHT22;5115;50.920;6.376;2024-03-29T00:42:09;10.20;99.90
10149;DHT22;5115;50.920;6.376;2024-03-29T00:44:38;10.20;99.90
10149;DHT22;5115;50.920;6.376;2024-03-29T00:47:07;10.10;99.90
10149;DHT22;5115;50.920;6.376;2024-03-29T00:49:33;10.10;99.90
10149;DHT22;5115;50.920;6.376;2024-03-29T00:51:59;10.10;99.90
10149;DHT22;5115;50.920;6.376;2024-03-29T00:54:25;10.00;99.90
10149;DHT22;5115;50.920;6.376;2024-03-29T00:56:50;10.00;99.90
10149;DHT22;5115;50.920;6.376;2024-03-29T00:59:16;9.80;99.90
10149;DHT22;5115;50.920;6.376;2024-03-29T01:01:42;9.60;99.90
10149;DHT22;5115;50.920;6.376;2024-03-29T01:04:07;9.60;99.90
10149;DHT22;5115;50.920;6.376;2024-03-29T01:06:33;9.60;99.90
10149;DHT22;5115;50.920;6.376;2024-03-29T01:08:59;9.40;99.90
10149;DHT22;5115;50.920;6.376;2024-03-29T01:11:25;9.40;99.90
10149;DHT22;5115;50.920;6.376;2024-03-29T01:13:50;9.50;99.90
10149;DHT22;5115;50.920;6.376;2024-03-29T01:16:16;9.50;99.90
10149;DHT22;5115;50.920;6.376;2024-03-29T01:18:41;9.60;99.90
10149;DHT22;5115;50.920;6.376;2024-03-29T01:21:09;9.60;99.90
10149;DHT22;5115;50.920;6.376;2024-03-29T01:23:34;9.70;99.90
10149;DHT22;5115;50.920;6.376;2024-03-29T01:26:00;9.70;99.90
10149;DHT22;5115;50.920;6.376;2024-03-29T01:28:26;9.80;99.90
10149;DHT22;5115;50.920;6.376;2024-03-29T01:30:52;9.70;99.90
10149;DHT22;5115;50.920;6.376;2024-03-29T01:33:18;9.80;99.90
10149;DHT22;5115;50.920;6.376;2024-03-29T01:35:43;9.80;99.90
10149;DHT22;5115;50.920;6.376;2024-03-29T01:38:09;9.60;99.90
10149;DHT22;5115;50.920;6.376;2024-03-29T01:40:34;9.60;99.90
10149;DHT22;5115;50.920;6.376;2024-03-29T01:43:01;9.60;99.90
10149;DHT22;5115;50.920;6.376;2024-03-29T01:45:26;10.00;99.90
10149;DHT22;5115;50.920;6.376;2024-03-29T01:47:53;9.60;99.90
10149;DHT22;5115;50.920;6.376;2024-03-29T01:50:18;9.60;99.90
10149;DHT22;5115;50.920;6.376;2024-03-29T01:52:44;9.70;99.90
10149;DHT22;5115;50.920;6.376;2024-03-29T01:55:10;9.60;99.90
10149;DHT22;5115;50.920;6.376;2024-03-29T01:57:35;9.60;99.90
10149;DHT22;5115;50.920;6.376;2024-03-29T02:00:01;9.60;99.90
10149;DHT22;5115;50.920;6.376;2024-03-29T02:02:30;9.80;99.90
10149;DHT22;5115;50.920;6.376;2024-03-29T02:04:57;9.90;99.90
10149;DHT22;5115;50.920;6.376;2024-03-29T02:07:26;9.90;99.90
10149;DHT22;5115;50.920;6.376;2024-03-29T02:09:53;9.90;99.90
10149;DHT22;5115;50.920;6.376;2024-03-29T02:12:18;10.00;99.90
10149;DHT22;5115;50.920;6.376;2024-03-29T02:14:44;10.00;99.90
10149;DHT22;5115;50.920;6.376;2024-03-29T02:17:09;10.00;99.90
10149;DHT22;5115;50.920;6.376;2024-03-29T02:19:35;10.00;99.90
10149;DHT22;5115;50.920;6.376;2024-03-29T02:22:01;10.00;99.90
10149;DHT22;5115;50.920;6.376;2024-03-29T02:24:30;10.00;99.90
10149;DHT22;5115;50.920;6.376;2024-03-29T02:26:56;10.00;99.90
10149;DHT22;5115;50.920;6.376;2024-03-29T02:29:23;10.10;99.90
10149;DHT22;5115;50.920;6.376;2024-03-29T02:31:49;10.10;99.90
10149;DHT22;5115;50.920;6.376;2024-03-29T02:34:14;10.20;99.90
10149;DHT22;5115;50.920;6.376;2024-03-29T02:36:40;10.20;99.90
10149;DHT22;5115;50.920;6.376;2024-03-29T02:39:08;10.50;99.90
10149;DHT22;5115;50.920;6.376;2024-03-29T02:41:33;10.70;99.90
10149;DHT22;5115;50.920;6.376;2024-03-29T02:43:59;10.80;99.90
10149;DHT22;5115;50.920;6.376;2024-03-29T02:46:24;11.00;99.90
10149;DHT22;5115;50.920;6.376;2024-03-29T02:48:50;11.00;99.90
10149;DHT22;5115;50.920;6.376;2024-03-29T02:51:15;11.10;99.90
10149;DHT22;5115;50.920;6.376;2024-03-29T02:53:41;11.10;99.90
10149;DHT22;5115;50.920;6.376;2024-03-29T02:56:06;11.10;99.90
10149;DHT22;5115;50.920;6.376;2024-03-29T02:58:35;11.10;99.90
10149;DHT22;5115;50.920;6.376;2024-03-29T03:01:08;11.10;99.90
10149;DHT22;5115;50.920;6.376;2024-03-29T03:03:34;11.00;99.90
10149;DHT22;5115;50.920;6.376;2024-03-29T03:06:00;11.00;99.90
10149;DHT22;5115;50.920;6.376;2024-03-29T03:08:25;11.00;99.90
10149;DHT22;5115;50.920;6.376;2024-03-29T03:11:09;10.90;99.90
10149;DHT22;5115;50.920;6.376;2024-03-29T03:13:35;10.90;99.90
10149;DHT22;5115;50.920;6.376;2024-03-29T03:16:01;10.90;99.90
10149;DHT22;5115;50.920;6.376;2024-03-29T03:18:26;10.90;99.90
10149;DHT22;5115;50.920;6.376;2024-03-29T03:20:55;10.90;99.90
10149;DHT22;5115;50.920;6.376;2024-03-29T03:23:23;10.90;99.90
10149;DHT22;5115;50.920;6.376;2024-03-29T03:25:56;11.00;99.90
10149;DHT22;5115;50.920;6.376;2024-03-29T03:28:22;11.00;99.90
10149;DHT22;5115;50.920;6.376;2024-03-29T03:30:49;11.00;99.90
10149;DHT22;5115;50.920;6.376;2024-03-29T03:33:14;11.00;99.90
10149;DHT22;5115;50.920;6.376;2024-03-29T03:35:41;11.00;99.90
10149;DHT22;5115;50.920;6.376;2024-03-29T03:38:06;10.90;99.90
10149;DHT22;5115;50.920;6.376;2024-03-29T03:40:33;10.90;99.90
10149;DHT22;5115;50.920;6.376;2024-03-29T03:42:58;10.90;99.90
10149;DHT22;5115;50.920;6.376;2024-03-29T03:45:24;10.90;99.90
10149;DHT22;5115;50.920;6.376;2024-03-29T03:47:49;10.80;99.90
10149;DHT22;5115;50.920;6.376;2024-03-29T03:50:15;10.80;99.90
10149;DHT22;5115;50.920;6.376;2024-03-29T03:52:40;10.80;99.90
10149;DHT22;5115;50.920;6.376;2024-03-29T03:55:06;10.80;99.90
10149;DHT22;5115;50.920;6.376;2024-03-29T03:57:31;10.70;99.90
10149;DHT22;5115;50.920;6.376;2024-03-29T03:59:59;10.70;99.90
10149;DHT22;5115;50.920;6.376;2024-03-29T04:02:25;10.70;99.90
10149;DHT22;5115;50.920;6.376;2024-03-29T04:04:50;10.70;99.90
10149;DHT22;5115;50.920;6.376;2024-03-29T04:07:16;10.70;99.90
10149;DHT22;5115;50.920;6.376;2024-03-29T04:09:42;10.70;99.90
10149;DHT22;5115;50.920;6.376;2024-03-29T04:12:07;10.70;99.90
10149;DHT22;5115;50.920;6.376;2024-03-29T04:14:33;10.70;99.90
10149;DHT22;5115;50.920;6.376;2024-03-29T04:16:58;10.70;99.90
10149;DHT22;5115;50.920;6.376;2024-03-29T04:19:24;10.70;99.90
10149;DHT22;5115;50.920;6.376;2024-03-29T04:21:49;10.60;99.90
10149;DHT22;5115;50.920;6.376;2024-03-29T04:24:15;10.70;99.90
10149;DHT22;5115;50.920;6.376;2024-03-29T04:26:40;10.70;99.90
10149;DHT22;5115;50.920;6.376;2024-03-29T04:29:06;10.70;99.90
10149;DHT22;5115;50.920;6.376;2024-03-29T04:31:31;10.50;99.90
10149;DHT22;5115;50.920;6.376;2024-03-29T04:33:57;10.40;99.90
10149;DHT22;5115;50.920;6.376;2024-03-29T04:36:22;10.20;99.90
10149;DHT22;5115;50.920;6.376;2024-03-29T04:38:48;10.10;99.90
10149;DHT22;5115;50.920;6.376;2024-03-29T04:41:13;9.90;99.90
10149;DHT22;5115;50.920;6.376;2024-03-29T04:43:40;9.70;99.90
10149;DHT22;5115;50.920;6.376;2024-03-29T04:46:10;9.80;99.90
10149;DHT22;5115;50.920;6.376;2024-03-29T04:48:39;9.60;99.90
10149;DHT22;5115;50.920;6.376;2024-03-29T04:51:05;9.50;99.90
10149;DHT22;5115;50.920;6.376;2024-03-29T04:53:31;9.60;99.90
10149;DHT22;5115;50.920;6.376;2024-03-29T04:55:57;9.60;99.90
10149;DHT22;5115;50.920;6.376;2024-03-29T04:58:26;9.70;99.90
10149;DHT22;5115;50.920;6.376;2024-03-29T05:00:52;9.60;99.90
10149;DHT22;5115;50.920;6.376;2024-03-29T05:03:19;9.60;99.90
10149;DHT22;5115;50.920;6.376;2024-03-29T05:05:45;9.60;99.90
10149;DHT22;5115;50.920;6.376;2024-03-29T05:08:11;9.60;99.90
10149;DHT22;5115;50.920;6.376;2024-03-29T05:10:36;9.60;99.90
10149;DHT22;5115;50.920;6.376;2024-03-29T05:13:02;9.60;99.90
10149;DHT22;5115;50.920;6.376;2024-03-29T05:15:28;9.50;99.90
10149;DHT22;5115;50.920;6.376;2024-03-29T05:17:54;9.50;99.90
10149;DHT22;5115;50.920;6.376;2024-03-29T05:20:20;9.50;99.90
10149;DHT22;5115;50.920;6.376;2024-03-29T05:22:45;9.40;99.90
10149;DHT22;5115;50.920;6.376;2024-03-29T05:25:11;9.30;99.90
10149;DHT22;5115;50.920;6.376;2024-03-29T05:27:36;9.30;99.90
10149;DHT22;5115;50.920;6.376;2024-03-29T05:30:03;9.30;99.90
10149;DHT22;5115;50.920;6.376;2024-03-29T05:32:29;9.20;99.90
10149;DHT22;5115;50.920;6.376;2024-03-29T05:34:55;9.20;99.90
10149;DHT22;5115;50.920;6.376;2024-03-29T05:37:21;9.10;99.90
10149;DHT22;5115;50.920;6.376;2024-03-29T05:39:47;9.00;99.90
10149;DHT22;5115;50.920;6.376;2024-03-29T05:42:13;9.10;99.90
10149;DHT22;5115;50.920;6.376;2024-03-29T05:44:38;9.00;99.90
10149;DHT22;5115;50.920;6.376;2024-03-29T05:47:04;8.90;99.90
10149;DHT22;5115;50.920;6.376;2024-03-29T05:49:32;9.00;99.90
10149;DHT22;5115;50.920;6.376;2024-03-29T05:51:58;8.90;99.90
10149;DHT22;5115;50.920;6.376;2024-03-29T05:54:24;8.90;99.90
10149;DHT22;5115;50.920;6.376;2024-03-29T05:56:50;8.90;99.90
10149;DHT22;5115;50.920;6.376;2024-03-29T05:59:15;8.90;99.90
10149;DHT22;5115;50.920;6.376;2024-03-29T06:01:41;8.80;99.90
10149;DHT22;5115;50.920;6.376;2024-03-29T06:04:07;8.90;99.90
10149;DHT22;5115;50.920;6.376;2024-03-29T06:06:41;9.00;99.90
10149;DHT22;5115;50.920;6.376;2024-03-29T06:09:07;9.00;99.90
10149;DHT22;5115;50.920;6.376;2024-03-29T06:11:32;9.10;99.90
10149;DHT22;5115;50.920;6.376;2024-03-29T06:13:58;9.20;99.90
10149;DHT22;5115;50.920;6.376;2024-03-29T06:16:25;9.30;99.90
10149;DHT22;5115;50.920;6.376;2024-03-29T06:19:10;9.30;99.90
10149;DHT22;5115;50.920;6.376;2024-03-29T06:21:36;9.30;99.90
10149;DHT22;5115;50.920;6.376;2024-03-29T06:24:09;9.40;99.90
10149;DHT22;5115;50.920;6.376;2024-03-29T06:26:38;9.50;99.90
10149;DHT22;5115;50.920;6.376;2024-03-29T06:29:03;9.60;99.90
10149;DHT22;5115;50.920;6.376;2024-03-29T06:31:29;9.60;99.90
10149;DHT22;5115;50.920;6.376;2024-03-29T06:33:55;9.50;99.90
10149;DHT22;5115;50.920;6.376;2024-03-29T06:36:21;9.60;99.90
10149;DHT22;5115;50.920;6.376;2024-03-29T06:38:46;9.70;99.90
10149;DHT22;5115;50.920;6.376;2024-03-29T06:41:12;9.80;99.90
10149;DHT22;5115;50.920;6.376;2024-03-29T06:43:40;9.90;99.90
10149;DHT22;5115;50.920;6.376;2024-03-29T06:46:06;9.90;99.90
10149;DHT22;5115;50.920;6.376;2024-03-29T06:48:31;10.00;99.90
10149;DHT22;5115;50.920;6.376;2024-03-29T06:50:57;10.10;99.90
10149;DHT22;5115;50.920;6.376;2024-03-29T06:53:26;10.10;99.90
10149;DHT22;5115;50.920;6.376;2024-03-29T06:55:51;10.20;99.90
10149;DHT22;5115;50.920;6.376;2024-03-29T06:58:17;10.30;99.90
10149;DHT22;5115;50.920;6.376;2024-03-29T07:00:46;10.40;99.90
10149;DHT22;5115;50.920;6.376;2024-03-29T07:03:12;10.50;99.90
10149;DHT22;5115;50.920;6.376;2024-03-29T07:05:38;10.60;99.90
10149;DHT22;5115;50.920;6.376;2024-03-29T07:08:04;10.70;99.90
10149;DHT22;5115;50.920;6.376;2024-03-29T07:10:30;10.80;99.90
10149;DHT22;5115;50.920;6.376;2024-03-29T07:12:56;11.00;99.90
10149;DHT22;5115;50.920;6.376;2024-03-29T07:15:21;11.10;99.90
10149;DHT22;5115;50.920;6.376;2024-03-29T07:17:47;11.30;99.90
10149;DHT22;5115;50.920;6.376;2024-03-29T07:20:15;11.30;99.90
10149;DHT22;5115;50.920;6.376;2024-03-29T07:22:41;11.40;99.90
10149;DHT22;5115;50.920;6.376;2024-03-29T07:25:06;11.50;99.90
10149;DHT22;5115;50.920;6.376;2024-03-29T07:27:32;11.60;99.90
10149;DHT22;5115;50.920;6.376;2024-03-29T07:30:03;11.60;99.90
10149;DHT22;5115;50.920;6.376;2024-03-29T07:32:30;11.60;99.90
10149;DHT22;5115;50.920;6.376;2024-03-29T07:34:56;11.70;99.90
10149;DHT22;5115;50.920;6.376;2024-03-29T07:37:26;11.80;99.90
10149;DHT22;5115;50.920;6.376;2024-03-29T07:39:51;11.80;99.90
10149;DHT22;5115;50.920;6.376;2024-03-29T07:42:17;11.90;99.90
10149;DHT22;5115;50.920;6.376;2024-03-29T07:44:44;11.90;99.90
10149;DHT22;5115;50.920;6.376;2024-03-29T07:47:10;11.90;99.90
10149;DHT22;5115;50.920;6.376;2024-03-29T07:49:38;12.10;99.90
10149;DHT22;5115;50.920;6.376;2024-03-29T07:52:04;12.20;99.90
10149;DHT22;5115;50.920;6.376;2024-03-29T07:54:31;12.30;99.90
10149;DHT22;5115;50.920;6.376;2024-03-29T07:56:57;13.10;99.90
10149;DHT22;5115;50.920;6.376;2024-03-29T07:59:22;12.40;99.90
10149;DHT22;5115;50.920;6.376;2024-03-29T08:01:48;12.40;99.90
10149;DHT22;5115;50.920;6.376;2024-03-29T08:04:13;12.50;99.90
10149;DHT22;5115;50.920;6.376;2024-03-29T08:06:42;12.50;99.90
10149;DHT22;5115;50.920;6.376;2024-03-29T08:09:07;12.60;99.90
10149;DHT22;5115;50.920;6.376;2024-03-29T08:11:35;12.60;99.90
10149;DHT22;5115;50.920;6.376;2024-03-29T08:14:00;12.60;99.90
10149;DHT22;5115;50.920;6.376;2024-03-29T08:16:26;12.60;99.90
10149;DHT22;5115;50.920;6.376;2024-03-29T08:18:52;12.70;99.90
10149;DHT22;5115;50.920;6.376;2024-03-29T08:21:17;12.70;99.90
10149;DHT22;5115;50.920;6.376;2024-03-29T08:23:43;12.80;99.90
10149;DHT22;5115;50.920;6.376;2024-03-29T08:26:11;13.00;99.90
10149;DHT22;5115;50.920;6.376;2024-03-29T08:28:37;13.10;99.90
10149;DHT22;5115;50.920;6.376;2024-03-29T08:31:05;13.20;99.90
10149;DHT22;5115;50.920;6.376;2024-03-29T08:33:32;13.40;99.90
10149;DHT22;5115;50.920;6.376;2024-03-29T08:35:57;13.50;99.90
10149;DHT22;5115;50.920;6.376;2024-03-29T08:38:24;13.60;99.90
10149;DHT22;5115;50.920;6.376;2024-03-29T08:40:49;13.70;99.90
10149;DHT22;5115;50.920;6.376;2024-03-29T08:43:16;13.90;99.90
10149;DHT22;5115;50.920;6.376;2024-03-29T08:45:43;14.00;99.90
10149;DHT22;5115;50.920;6.376;2024-03-29T08:48:09;14.00;99.90
10149;DHT22;5115;50.920;6.376;2024-03-29T08:50:36;14.00;99.90
10149;DHT22;5115;50.920;6.376;2024-03-29T08:53:05;14.10;99.90
10149;DHT22;5115;50.920;6.376;2024-03-29T08:55:31;14.20;99.90
10149;DHT22;5115;50.920;6.376;2024-03-29T08:57:58;14.30;99.90
10149;DHT22;5115;50.920;6.376;2024-03-29T09:00:27;14.40;99.90
10149;DHT22;5115;50.920;6.376;2024-03-29T09:02:54;14.40;99.90
10149;DHT22;5115;50.920;6.376;2024-03-29T09:05:19;14.60;99.90
10149;DHT22;5115;50.920;6.376;2024-03-29T09:07:45;14.80;99.90
10149;DHT22;5115;50.920;6.376;2024-03-29T09:10:12;15.00;99.90
10149;DHT22;5115;50.920;6.376;2024-03-29T09:12:37;15.40;99.90
10149;DHT22;5115;50.920;6.376;2024-03-29T09:15:05;16.00;99.90
10149;DHT22;5115;50.920;6.376;2024-03-29T09:17:41;16.30;99.90
10149;DHT22;5115;50.920;6.376;2024-03-29T09:20:07;16.40;99.90
10149;DHT22;5115;50.920;6.376;2024-03-29T09:22:33;16.40;99.90
10149;DHT22;5115;50.920;6.376;2024-03-29T09:24:59;16.20;99.90
10149;DHT22;5115;50.920;6.376;2024-03-29T09:27:26;16.30;99.90
10149;DHT22;5115;50.920;6.376;2024-03-29T09:29:51;16.50;99.90
10149;DHT22;5115;50.920;6.376;2024-03-29T09:32:17;16.50;99.90
10149;DHT22;5115;50.920;6.376;2024-03-29T09:34:44;16.50;99.90
10149;DHT22;5115;50.920;6.376;2024-03-29T09:37:10;16.60;99.90
10149;DHT22;5115;50.920;6.376;2024-03-29T09:39:35;16.60;99.90
10149;DHT22;5115;50.920;6.376;2024-03-29T09:42:02;16.60;99.90
10149;DHT22;5115;50.920;6.376;2024-03-29T09:44:32;16.50;99.90
10149;DHT22;5115;50.920;6.376;2024-03-29T09:47:02;16.80;99.90
10149;DHT22;5115;50.920;6.376;2024-03-29T09:49:32;16.90;99.90
10149;DHT22;5115;50.920;6.376;2024-03-29T09:51:59;16.90;99.90
10149;DHT22;5115;50.920;6.376;2024-03-29T09:54:29;17.20;99.90
10149;DHT22;5115;50.920;6.376;2024-03-29T09:56:55;17.40;99.90
10149;DHT22;5115;50.920;6.376;2024-03-29T09:59:22;17.30;99.90
10149;DHT22;5115;50.920;6.376;2024-03-29T10:01:48;17.30;99.90
10149;DHT22;5115;50.920;6.376;2024-03-29T10:04:16;17.20;99.90
10149;DHT22;5115;50.920;6.376;2024-03-29T10:06:44;17.00;99.90
10149;DHT22;5115;50.920;6.376;2024-03-29T10:09:10;16.80;99.90
10149;DHT22;5115;50.920;6.376;2024-03-29T10:11:36;16.60;99.90
10149;DHT22;5115;50.920;6.376;2024-03-29T10:14:02;16.50;99.90
10149;DHT22;5115;50.920;6.376;2024-03-29T10:16:30;16.30;99.90
10149;DHT22;5115;50.920;6.376;2024-03-29T10:18:58;16.30;99.90
10149;DHT22;5115;50.920;6.376;2024-03-29T10:21:27;16.40;99.90
10149;DHT22;5115;50.920;6.376;2024-03-29T10:23:52;16.40;99.90
10149;DHT22;5115;50.920;6.376;2024-03-29T10:26:18;16.20;99.90
10149;DHT22;5115;50.920;6.376;2024-03-29T10:28:46;16.00;99.90
10149;DHT22;5115;50.920;6.376;2024-03-29T10:31:12;16.10;99.90
10149;DHT22;5115;50.920;6.376;2024-03-29T10:33:41;16.10;99.90
10149;DHT22;5115;50.920;6.376;2024-03-29T10:36:07;16.00;99.90
10149;DHT22;5115;50.920;6.376;2024-03-29T10:38:35;16.00;99.90
10149;DHT22;5115;50.920;6.376;2024-03-29T10:41:01;16.40;99.90
10149;DHT22;5115;50.920;6.376;2024-03-29T10:43:29;16.70;99.90
10149;DHT22;5115;50.920;6.376;2024-03-29T10:45:55;16.80;99.90
10149;DHT22;5115;50.920;6.376;2024-03-29T10:48:26;17.00;99.90
10149;DHT22;5115;50.920;6.376;2024-03-29T10:50:54;17.30;99.90
10149;DHT22;5115;50.920;6.376;2024-03-29T10:53:22;17.30;99.90
10149;DHT22;5115;50.920;6.376;2024-03-29T10:55:50;17.40;99.90
10149;DHT22;5115;50.920;6.376;2024-03-29T10:58:19;17.30;99.90
10149;DHT22;5115;50.920;6.376;2024-03-29T11:00:53;17.30;99.90
10149;DHT22;5115;50.920;6.376;2024-03-29T11:03:50;16.60;99.90
10149;DHT22;5115;50.920;6.376;2024-03-29T11:06:18;17.50;99.90
10149;DHT22;5115;50.920;6.376;2024-03-29T11:08:48;17.80;99.90
10149;DHT22;5115;50.920;6.376;2024-03-29T11:11:17;18.10;99.90
10149;DHT22;5115;50.920;6.376;2024-03-29T11:14:02;18.30;99.90
10149;DHT22;5115;50.920;6.376;2024-03-29T11:16:29;18.20;99.90
10149;DHT22;5115;50.920;6.376;2024-03-29T11:18:55;18.30;99.90
10149;DHT22;5115;50.920;6.376;2024-03-29T11:21:21;18.10;99.90
10149;DHT22;5115;50.920;6.376;2024-03-29T11:23:50;18.00;99.90
10149;DHT22;5115;50.920;6.376;2024-03-29T11:26:17;17.90;99.90
10149;DHT22;5115;50.920;6.376;2024-03-29T11:28:48;17.60;99.90
10149;DHT22;5115;50.920;6.376;2024-03-29T11:31:15;17.50;99.90
10149;DHT22;5115;50.920;6.376;2024-03-29T11:38:48;17.50;99.90
10149;DHT22;5115;50.920;6.376;2024-03-29T11:41:22;17.60;99.90
10149;DHT22;5115;50.920;6.376;2024-03-29T11:43:52;17.90;99.90
10149;DHT22;5115;50.920;6.376;2024-03-29T11:46:18;18.20;99.90
10149;DHT22;5115;50.920;6.376;2024-03-29T11:48:45;18.50;99.90
10149;DHT22;5115;50.920;6.376;2024-03-29T11:51:17;18.70;99.90
10149;DHT22;5115;50.920;6.376;2024-03-29T11:53:44;18.60;99.90
10149;DHT22;5115;50.920;6.376;2024-03-29T11:56:10;18.20;99.90
10149;DHT22;5115;50.920;6.376;2024-03-29T11:58:40;18.00;99.90
10149;DHT22;5115;50.920;6.376;2024-03-29T12:01:07;17.90;99.90
10149;DHT22;5115;50.920;6.376;2024-03-29T12:03:38;17.60;99.90
10149;DHT22;5115;50.920;6.376;2024-03-29T12:06:04;17.40;99.90
10149;DHT22;5115;50.920;6.376;2024-03-29T12:08:34;17.40;99.90
10149;DHT22;5115;50.920;6.376;2024-03-29T12:11:02;17.10;99.90
10149;DHT22;5115;50.920;6.376;2024-03-29T12:13:29;17.00;99.90
10149;DHT22;5115;50.920;6.376;2024-03-29T12:15:55;16.90;99.90
10149;DHT22;5115;50.920;6.376;2024-03-29T12:18:22;16.70;99.90
10149;DHT22;5115;50.920;6.376;2024-03-29T12:20:49;16.70;99.90
10149;DHT22;5115;50.920;6.376;2024-03-29T12:23:17;16.80;99.90
10149;DHT22;5115;50.920;6.376;2024-03-29T12:25:43;16.70;99.90
10149;DHT22;5115;50.920;6.376;2024-03-29T12:28:10;16.60;99.90
10149;DHT22;5115;50.920;6.376;2024-03-29T12:30:37;16.40;99.90
10149;DHT22;5115;50.920;6.376;2024-03-29T12:33:08;16.30;99.90
10149;DHT22;5115;50.920;6.376;2024-03-29T12:35:42;16.20;99.90
10149;DHT22;5115;50.920;6.376;2024-03-29T12:38:11;16.10;99.90
10149;DHT22;5115;50.920;6.376;2024-03-29T12:40:37;16.20;99.90
10149;DHT22;5115;50.920;6.376;2024-03-29T12:43:06;16.30;99.90
10149;DHT22;5115;50.920;6.376;2024-03-29T12:45:40;16.40;99.90
10149;DHT22;5115;50.920;6.376;2024-03-29T12:50:35;16.80;99.90
10149;DHT22;5115;50.920;6.376;2024-03-29T12:53:05;17.00;99.90
10149;DHT22;5115;50.920;6.376;2024-03-29T12:55:31;17.00;99.90
10149;DHT22;5115;50.920;6.376;2024-03-29T12:58:00;17.10;99.90
10149;DHT22;5115;50.920;6.376;2024-03-29T13:00:27;17.20;99.90
10149;DHT22;5115;50.920;6.376;2024-03-29T13:02:53;17.20;99.90
10149;DHT22;5115;50.920;6.376;2024-03-29T13:05:19;17.10;99.90
10149;DHT22;5115;50.920;6.376;2024-03-29T13:07:45;17.10;99.90
10149;DHT22;5115;50.920;6.376;2024-03-29T13:10:11;16.90;99.90
10149;DHT22;5115;50.920;6.376;2024-03-29T13:12:45;17.00;99.90
10149;DHT22;5115;50.920;6.376;2024-03-29T13:15:34;17.00;99.90
10149;DHT22;5115;50.920;6.376;2024-03-29T13:18:00;17.20;99.90
10149;DHT22;5115;50.920;6.376;2024-03-29T13:20:25;17.30;99.90
10149;DHT22;5115;50.920;6.376;2024-03-29T13:22:51;17.30;99.90
10149;DHT22;5115;50.920;6.376;2024-03-29T13:25:20;17.50;99.90
10149;DHT22;5115;50.920;6.376;2024-03-29T13:27:48;17.60;99.90
10149;DHT22;5115;50.920;6.376;2024-03-29T13:30:14;17.60;99.90
10149;DHT22;5115;50.920;6.376;2024-03-29T13:32:44;17.60;99.90
10149;DHT22;5115;50.920;6.376;2024-03-29T13:35:12;17.60;99.90
10149;DHT22;5115;50.920;6.376;2024-03-29T13:37:39;17.60;99.90
10149;DHT22;5115;50.920;6.376;2024-03-29T13:40:07;17.50;99.90
10149;DHT22;5115;50.920;6.376;2024-03-29T13:42:34;17.60;99.90
10149;DHT22;5115;50.920;6.376;2024-03-29T13:45:00;17.60;99.90
10149;DHT22;5115;50.920;6.376;2024-03-29T13:47:25;17.50;99.90
10149;DHT22;5115;50.920;6.376;2024-03-29T13:49:51;17.50;99.90
10149;DHT22;5115;50.920;6.376;2024-03-29T13:52:18;17.40;99.90
10149;DHT22;5115;50.920;6.376;2024-03-29T13:54:44;17.50;99.90
10149;DHT22;5115;50.920;6.376;2024-03-29T13:57:14;17.50;99.90
10149;DHT22;5115;50.920;6.376;2024-03-29T13:59:40;17.50;99.90
10149;DHT22;5115;50.920;6.376;2024-03-29T14:02:09;17.60;99.90
10149;DHT22;5115;50.920;6.376;2024-03-29T14:04:34;17.60;99.90
10149;DHT22;5115;50.920;6.376;2024-03-29T14:07:00;17.70;99.90
10149;DHT22;5115;50.920;6.376;2024-03-29T14:09:27;17.70;99.90
10149;DHT22;5115;50.920;6.376;2024-03-29T14:11:52;17.70;99.90
10149;DHT22;5115;50.920;6.376;2024-03-29T14:14:18;17.70;99.90
10149;DHT22;5115;50.920;6.376;2024-03-29T14:16:43;17.50;99.90
10149;DHT22;5115;50.920;6.376;2024-03-29T14:19:09;17.60;99.90
10149;DHT22;5115;50.920;6.376;2024-03-29T14:21:34;17.50;99.90
10149;DHT22;5115;50.920;6.376;2024-03-29T14:24:00;17.50;99.90
10149;DHT22;5115;50.920;6.376;2024-03-29T14:26:25;17.60;99.90
10149;DHT22;5115;50.920;6.376;2024-03-29T14:28:51;17.50;99.90
10149;DHT22;5115;50.920;6.376;2024-03-29T14:31:16;17.40;99.90
10149;DHT22;5115;50.920;6.376;2024-03-29T14:33:42;17.40;99.90
10149;DHT22;5115;50.920;6.376;2024-03-29T14:36:10;17.50;99.90
10149;DHT22;5115;50.920;6.376;2024-03-29T14:38:35;17.60;99.90
10149;DHT22;5115;50.920;6.376;2024-03-29T14:41:01;17.50;99.90
10149;DHT22;5115;50.920;6.376;2024-03-29T14:43:26;17.60;99.90
10149;DHT22;5115;50.920;6.376;2024-03-29T14:45:52;17.40;99.90
10149;DHT22;5115;50.920;6.376;2024-03-29T14:48:18;17.50;99.90
10149;DHT22;5115;50.920;6.376;2024-03-29T14:50:43;17.60;99.90
10149;DHT22;5115;50.920;6.376;2024-03-29T14:53:09;17.50;99.90
10149;DHT22;5115;50.920;6.376;2024-03-29T14:55:34;17.50;99.90
10149;DHT22;5115;50.920;6.376;2024-03-29T14:58:05;17.60;99.90
10149;DHT22;5115;50.920;6.376;2024-03-29T15:00:30;17.40;99.90
10149;DHT22;5115;50.920;6.376;2024-03-29T15:02:56;17.30;99.90
10149;DHT22;5115;50.920;6.376;2024-03-29T15:05:21;17.30;99.90
10149;DHT22;5115;50.920;6.376;2024-03-29T15:07:47;17.20;99.90
10149;DHT22;5115;50.920;6.376;2024-03-29T15:10:12;17.10;99.90
10149;DHT22;5115;50.920;6.376;2024-03-29T15:12:39;17.10;99.90
10149;DHT22;5115;50.920;6.376;2024-03-29T15:15:06;17.00;99.90
10149;DHT22;5115;50.920;6.376;2024-03-29T15:17:32;17.00;99.90
10149;DHT22;5115;50.920;6.376;2024-03-29T15:19:57;17.00;99.90
10149;DHT22;5115;50.920;6.376;2024-03-29T15:22:24;16.90;99.90
10149;DHT22;5115;50.920;6.376;2024-03-29T15:24:50;16.80;99.90
10149;DHT22;5115;50.920;6.376;2024-03-29T15:27:15;16.70;99.90
10149;DHT22;5115;50.920;6.376;2024-03-29T15:30:14;16.70;99.90
10149;DHT22;5115;50.920;6.376;2024-03-29T15:32:40;16.60;99.90
10149;DHT22;5115;50.920;6.376;2024-03-29T15:35:06;16.50;99.90
10149;DHT22;5115;50.920;6.376;2024-03-29T15:37:32;16.40;99.90
10149;DHT22;5115;50.920;6.376;2024-03-29T15:39:58;16.30;99.90
10149;DHT22;5115;50.920;6.376;2024-03-29T15:42:24;16.30;99.90
10149;DHT22;5115;50.920;6.376;2024-03-29T15:44:49;16.30;99.90
10149;DHT22;5115;50.920;6.376;2024-03-29T15:47:16;16.30;99.90
10149;DHT22;5115;50.920;6.376;2024-03-29T15:49:41;16.40;99.90
10149;DHT22;5115;50.920;6.376;2024-03-29T15:52:07;16.40;99.90
10149;DHT22;5115;50.920;6.376;2024-03-29T15:54:34;16.30;99.90